createdAt,value
2023-03-18T00:02:21.908Z,63.20
2023-03-18T00:04:48.813Z,63.20
2023-03-18T00:07:16.327Z,63.20
2023-03-18T00:09:43.197Z,63.30
2023-03-18T00:12:10.732Z,63.20
2023-03-18T00:14:38.576Z,63.10
2023-03-18T00:17:05.753Z,63.20
2023-03-18T00:19:33.745Z,63.10
2023-03-18T00:22:00.746Z,63.20
2023-03-18T00:24:30.580Z,63.20
2023-03-18T00:26:57.485Z,63.20
2023-03-18T00:29:25.057Z,63.20
2023-03-18T00:31:52.059Z,63.20
2023-03-18T00:34:21.030Z,63.20
2023-03-18T00:36:51.029Z,63.20
2023-03-18T00:39:21.649Z,63.30
2023-03-18T00:41:48.610Z,63.40
2023-03-18T00:44:15.423Z,63.30
2023-03-18T00:46:42.340Z,63.30
2023-03-18T00:49:09.701Z,63.40
2023-03-18T00:51:37.522Z,63.50
2023-03-18T00:54:07.301Z,63.60
2023-03-18T00:56:34.880Z,63.70
2023-03-18T00:59:04.305Z,63.80
2023-03-18T01:01:31.509Z,64.00
2023-03-18T01:04:00.104Z,64.00
2023-03-18T01:06:30.563Z,64.10
2023-03-18T01:08:58.567Z,64.30
2023-03-18T01:11:26.142Z,64.20
2023-03-18T01:13:53.300Z,64.10
2023-03-18T01:16:21.188Z,64.10
2023-03-18T01:18:48.184Z,63.90
2023-03-18T01:21:15.454Z,63.80
2023-03-18T01:23:48.797Z,63.70
2023-03-18T01:26:16.817Z,63.60
2023-03-18T01:28:45.546Z,63.50
2023-03-18T01:31:13.877Z,63.70
2023-03-18T01:33:42.440Z,63.60
2023-03-18T01:36:10.616Z,63.70
2023-03-18T01:38:37.788Z,63.60
2023-03-18T01:41:11.141Z,63.70
2023-03-18T01:43:40.634Z,63.70
2023-03-18T01:46:26.445Z,63.70
2023-03-18T01:48:53.484Z,63.80
2023-03-18T01:51:20.950Z,63.60
2023-03-18T01:53:49.121Z,63.70
2023-03-18T01:56:16.769Z,63.90
2023-03-18T01:58:45.751Z,64.00
2023-03-18T02:01:18.050Z,64.10
2023-03-18T02:03:49.433Z,64.30
2023-03-18T02:06:17.012Z,64.40
2023-03-18T02:08:47.876Z,64.50
2023-03-18T02:11:15.968Z,64.50
2023-03-18T02:13:46.030Z,64.40
2023-03-18T02:16:20.502Z,64.60
2023-03-18T02:18:50.413Z,64.40
2023-03-18T02:21:39.459Z,64.50
2023-03-18T02:24:36.099Z,64.60
2023-03-18T02:27:15.775Z,64.60
2023-03-18T02:29:44.032Z,64.60
2023-03-18T02:32:16.736Z,64.80
2023-03-18T02:34:44.229Z,65.00
2023-03-18T02:37:11.345Z,65.00
2023-03-18T02:39:41.024Z,65.00
2023-03-18T02:42:11.042Z,64.90
2023-03-18T02:44:40.542Z,65.00
2023-03-18T02:47:33.204Z,65.00
2023-03-18T02:50:00.921Z,65.20
2023-03-18T02:52:27.772Z,65.20
2023-03-18T02:54:58.462Z,65.30
2023-03-18T02:57:27.532Z,65.30
2023-03-18T02:59:55.562Z,65.30
2023-03-18T03:02:22.644Z,65.30
2023-03-18T03:04:50.008Z,65.30
2023-03-18T03:07:19.970Z,65.30
2023-03-18T03:09:51.202Z,65.30
2023-03-18T03:12:19.774Z,65.40
2023-03-18T03:14:51.639Z,65.40
2023-03-18T03:17:19.376Z,65.50
2023-03-18T03:19:46.292Z,65.60
2023-03-18T03:22:14.533Z,65.70
2023-03-18T03:24:41.354Z,65.80
2023-03-18T03:27:08.210Z,66.10
2023-03-18T03:29:35.134Z,66.20
2023-03-18T03:32:02.238Z,66.20
2023-03-18T03:34:29.710Z,66.30
2023-03-18T03:36:56.878Z,66.50
2023-03-18T03:39:25.778Z,66.60
2023-03-18T03:41:52.968Z,66.70
2023-03-18T03:44:19.830Z,66.60
2023-03-18T03:46:49.368Z,66.70
2023-03-18T03:49:16.750Z,66.80
2023-03-18T03:51:44.715Z,66.90
2023-03-18T03:54:13.261Z,66.90
2023-03-18T03:56:40.272Z,66.90
2023-03-18T03:59:07.188Z,67.00
2023-03-18T04:01:57.044Z,67.10
2023-03-18T04:04:24.302Z,67.00
2023-03-18T04:06:51.508Z,67.00
2023-03-18T04:09:18.384Z,67.00
2023-03-18T04:11:45.658Z,67.10
2023-03-18T04:14:12.743Z,67.10
2023-03-18T04:16:40.586Z,67.00
2023-03-18T04:19:10.104Z,67.10
2023-03-18T04:21:37.033Z,67.00
2023-03-18T04:24:04.076Z,67.30
2023-03-18T04:26:31.294Z,67.50
2023-03-18T04:29:01.135Z,67.70
2023-03-18T04:31:28.566Z,68.00
2023-03-18T04:33:55.559Z,68.00
2023-03-18T04:36:22.650Z,68.30
2023-03-18T04:38:49.704Z,68.30
2023-03-18T04:41:17.720Z,68.30
2023-03-18T04:43:44.768Z,68.20
2023-03-18T04:46:12.269Z,68.10
2023-03-18T04:48:39.643Z,68.40
2023-03-18T04:51:09.232Z,68.40
2023-03-18T04:53:36.716Z,68.40
2023-03-18T04:56:05.212Z,68.50
2023-03-18T04:58:41.594Z,68.40
2023-03-18T05:01:13.222Z,68.40
2023-03-18T05:03:40.854Z,68.70
2023-03-18T05:06:17.033Z,68.80
2023-03-18T05:08:54.171Z,68.80
2023-03-18T05:11:23.625Z,68.60
2023-03-18T05:13:50.840Z,68.60
2023-03-18T05:16:18.863Z,69.40
2023-03-18T05:18:47.600Z,68.60
2023-03-18T05:21:15.548Z,68.70
2023-03-18T05:23:43.076Z,68.80
2023-03-18T05:26:11.623Z,69.10
2023-03-18T05:28:40.205Z,69.10
2023-03-18T05:31:18.487Z,69.00
2023-03-18T05:33:46.188Z,69.00
2023-03-18T05:36:14.588Z,68.80
2023-03-18T05:38:52.670Z,68.70
2023-03-18T05:41:19.599Z,68.50
2023-03-18T05:43:47.561Z,68.30
2023-03-18T05:46:15.101Z,68.10
2023-03-18T05:48:57.706Z,67.90
2023-03-18T05:51:29.884Z,67.80
2023-03-18T05:53:56.882Z,68.00
2023-03-18T05:56:28.420Z,67.90
2023-03-18T05:58:59.021Z,67.80
2023-03-18T06:01:44.722Z,67.70
2023-03-18T06:04:11.714Z,67.50
2023-03-18T06:06:40.637Z,67.30
2023-03-18T06:09:09.005Z,68.00
2023-03-18T06:11:37.013Z,66.90
2023-03-18T06:14:07.324Z,66.60
2023-03-18T06:16:35.254Z,66.40
2023-03-18T06:19:03.402Z,66.00
2023-03-18T06:21:33.097Z,65.60
2023-03-18T06:24:00.483Z,65.20
2023-03-18T06:26:28.580Z,64.80
2023-03-18T06:28:56.470Z,64.40
2023-03-18T06:31:25.971Z,64.30
2023-03-18T06:33:53.312Z,64.10
2023-03-18T06:36:21.802Z,63.80
2023-03-18T06:38:52.078Z,63.70
2023-03-18T06:41:19.602Z,63.80
2023-03-18T06:44:05.253Z,63.80
2023-03-18T06:46:32.323Z,63.40
2023-03-18T06:49:01.969Z,63.20
2023-03-18T06:51:34.383Z,62.80
2023-03-18T06:54:01.709Z,62.60
2023-03-18T06:56:33.847Z,62.30
2023-03-18T06:59:11.969Z,61.20
2023-03-18T07:01:39.344Z,58.40
2023-03-18T07:04:06.968Z,56.10
2023-03-18T07:06:34.698Z,54.20
2023-03-18T07:09:01.752Z,53.30
2023-03-18T07:11:29.815Z,52.90
2023-03-18T07:13:58.627Z,52.70
2023-03-18T07:16:30.836Z,53.20
2023-03-18T07:18:59.119Z,53.40
2023-03-18T07:21:27.780Z,53.20
2023-03-18T07:23:55.556Z,52.30
2023-03-18T07:26:25.258Z,52.00
2023-03-18T07:28:52.232Z,51.70
2023-03-18T07:31:19.160Z,50.80
2023-03-18T07:33:46.913Z,49.40
2023-03-18T07:36:14.229Z,48.60
2023-03-18T07:38:41.151Z,47.40
2023-03-18T07:41:08.349Z,45.20
2023-03-18T07:43:35.233Z,43.40
2023-03-18T07:46:02.874Z,41.50
2023-03-18T07:48:30.696Z,39.50
2023-03-18T07:50:57.819Z,37.40
2023-03-18T07:53:25.288Z,35.80
2023-03-18T07:55:52.108Z,35.10
2023-03-18T07:58:18.966Z,34.40
2023-03-18T08:00:45.769Z,33.20
2023-03-18T08:03:12.895Z,33.40
2023-03-18T08:05:41.107Z,33.00
2023-03-18T08:08:08.242Z,32.70
2023-03-18T08:10:35.429Z,32.30
2023-03-18T08:13:02.885Z,32.30
2023-03-18T08:15:30.226Z,31.90
2023-03-18T08:17:57.557Z,32.20
2023-03-18T08:20:24.464Z,32.20
2023-03-18T08:22:51.263Z,32.30
2023-03-18T08:25:18.039Z,32.10
2023-03-18T08:27:44.899Z,32.60
2023-03-18T08:30:12.507Z,31.30
2023-03-18T08:32:39.379Z,30.90
2023-03-18T08:35:06.529Z,30.60
2023-03-18T08:37:33.759Z,30.50
2023-03-18T08:40:00.557Z,30.00
2023-03-18T08:42:27.881Z,29.50
2023-03-18T08:44:54.972Z,29.30
2023-03-18T08:47:22.019Z,29.90
2023-03-18T08:49:51.368Z,30.20
2023-03-18T08:52:18.864Z,31.20
2023-03-18T08:54:45.887Z,31.10
2023-03-18T08:57:12.722Z,30.70
2023-03-18T08:59:39.550Z,30.60
2023-03-18T09:02:06.316Z,29.80
2023-03-18T09:04:33.092Z,29.50
2023-03-18T09:07:01.556Z,30.00
2023-03-18T09:09:42.836Z,31.00
2023-03-18T09:12:11.929Z,31.60
2023-03-18T09:14:38.790Z,31.80
2023-03-18T09:17:06.424Z,30.70
2023-03-18T09:19:33.457Z,30.90
2023-03-18T09:22:00.304Z,30.40
2023-03-18T09:24:27.174Z,29.90
2023-03-18T09:26:53.995Z,30.20
2023-03-18T09:29:20.767Z,30.60
2023-03-18T09:31:47.634Z,31.20
2023-03-18T09:34:14.552Z,30.90
2023-03-18T09:36:43.639Z,30.70
2023-03-18T09:39:10.961Z,30.60
2023-03-18T09:41:47.069Z,30.30
2023-03-18T09:44:17.782Z,30.00
2023-03-18T09:46:44.887Z,29.60
2023-03-18T09:49:16.718Z,28.70
2023-03-18T09:52:02.251Z,28.70
2023-03-18T09:54:32.676Z,28.60
2023-03-18T09:56:59.758Z,28.60
2023-03-18T09:59:32.748Z,28.20
2023-03-18T10:02:00.093Z,27.70
2023-03-18T10:04:47.282Z,28.00
2023-03-18T10:07:17.626Z,28.20
2023-03-18T10:09:46.410Z,27.80
2023-03-18T10:12:25.605Z,27.90
2023-03-18T10:14:58.425Z,27.90
2023-03-18T10:17:25.297Z,27.60
2023-03-18T10:19:54.379Z,27.60
2023-03-18T10:22:24.525Z,27.30
2023-03-18T10:25:09.938Z,27.20
2023-03-18T10:27:50.981Z,26.90
2023-03-18T10:30:34.741Z,26.50
2023-03-18T10:33:07.803Z,26.50
2023-03-18T10:35:42.343Z,26.70
2023-03-18T10:38:09.346Z,26.10
2023-03-18T10:40:38.090Z,25.90
2023-03-18T10:43:10.825Z,25.70
2023-03-18T10:45:38.482Z,26.20
2023-03-18T10:48:15.199Z,26.30
2023-03-18T10:50:44.179Z,26.20
2023-03-18T10:53:11.971Z,25.80
2023-03-18T10:55:50.908Z,25.60
2023-03-18T10:58:19.496Z,25.50
2023-03-18T11:00:46.419Z,25.50
2023-03-18T11:03:22.434Z,25.20
2023-03-18T11:05:50.383Z,24.80
2023-03-18T11:08:34.402Z,25.00
2023-03-18T11:11:19.794Z,25.40
2023-03-18T11:13:47.975Z,25.30
2023-03-18T11:16:21.933Z,25.00
2023-03-18T11:18:50.145Z,25.10
2023-03-18T11:21:17.205Z,25.10
2023-03-18T11:23:56.419Z,25.00
2023-03-18T11:26:24.700Z,25.00
2023-03-18T11:28:55.290Z,25.10
2023-03-18T11:31:22.179Z,25.00
2023-03-18T11:33:49.669Z,25.10
2023-03-18T11:36:23.230Z,25.00
2023-03-18T11:39:04.007Z,24.90
2023-03-18T11:41:30.909Z,25.30
2023-03-18T11:44:01.523Z,25.50
2023-03-18T11:46:40.540Z,25.70
2023-03-18T11:49:13.184Z,25.80
2023-03-18T11:52:06.768Z,25.70
2023-03-18T11:54:46.053Z,25.60
2023-03-18T11:57:22.048Z,25.60
2023-03-18T11:59:57.734Z,25.40
2023-03-18T12:02:24.780Z,26.10
2023-03-18T12:04:55.647Z,25.80
2023-03-18T12:07:26.550Z,25.80
2023-03-18T12:10:15.140Z,26.20
2023-03-18T12:12:54.869Z,25.90
2023-03-18T12:15:25.908Z,25.60
2023-03-18T12:18:13.005Z,25.30
2023-03-18T12:20:40.895Z,25.40
2023-03-18T12:23:16.014Z,25.50
2023-03-18T12:25:52.761Z,26.10
2023-03-18T12:28:34.911Z,26.20
2023-03-18T12:31:02.382Z,26.30
2023-03-18T12:33:35.805Z,26.40
2023-03-18T12:36:08.732Z,26.70
2023-03-18T12:38:58.714Z,26.50
2023-03-18T12:41:27.693Z,26.40
2023-03-18T12:44:13.627Z,26.30
2023-03-18T12:47:00.632Z,26.10
2023-03-18T12:49:30.862Z,26.10
2023-03-18T12:52:02.909Z,25.90
2023-03-18T12:54:36.694Z,25.80
2023-03-18T12:57:13.375Z,25.90
2023-03-18T12:59:53.071Z,25.50
2023-03-18T13:02:33.935Z,25.40
2023-03-18T13:05:03.521Z,26.10
2023-03-18T13:07:49.062Z,26.50
2023-03-18T13:10:15.874Z,26.30
2023-03-18T13:12:43.600Z,26.10
2023-03-18T13:15:15.172Z,26.10
2023-03-18T13:17:44.731Z,26.40
2023-03-18T13:20:32.153Z,26.70
2023-03-18T13:23:18.023Z,26.30
2023-03-18T13:25:54.281Z,26.80
2023-03-18T13:28:21.289Z,27.10
2023-03-18T13:30:59.538Z,27.30
2023-03-18T13:33:32.638Z,27.50
2023-03-18T13:36:05.527Z,27.50
2023-03-18T13:38:52.575Z,28.10
2023-03-18T13:41:21.255Z,27.90
2023-03-18T13:43:49.511Z,27.80
2023-03-18T13:46:19.503Z,27.80
2023-03-18T13:48:46.423Z,27.90
2023-03-18T13:51:19.312Z,28.00
2023-03-18T13:53:47.473Z,28.00
2023-03-18T13:56:28.416Z,28.10
2023-03-18T13:58:55.295Z,28.20
2023-03-18T14:01:28.722Z,28.10
2023-03-18T14:03:58.594Z,28.30
2023-03-18T14:06:46.390Z,28.30
2023-03-18T14:09:31.783Z,28.90
2023-03-18T14:12:18.930Z,28.70
2023-03-18T14:14:52.979Z,29.10
2023-03-18T14:17:28.873Z,29.80
2023-03-18T14:19:57.089Z,29.70
2023-03-18T14:22:28.344Z,29.40
2023-03-18T14:25:08.420Z,29.80
2023-03-18T14:27:44.711Z,30.10
2023-03-18T14:30:29.588Z,30.70
2023-03-18T14:32:57.234Z,30.70
2023-03-18T14:35:28.634Z,30.70
2023-03-18T14:37:56.347Z,30.70
2023-03-18T14:40:23.253Z,30.80
2023-03-18T14:42:56.776Z,30.80
2023-03-18T14:45:49.437Z,30.60
2023-03-18T14:48:21.513Z,30.80
2023-03-18T14:50:49.804Z,31.20
2023-03-18T14:53:42.799Z,31.20
2023-03-18T14:56:19.868Z,32.00
2023-03-18T14:58:47.527Z,31.40
2023-03-18T15:01:16.189Z,31.50
2023-03-18T15:03:47.115Z,31.90
2023-03-18T15:06:21.796Z,32.10
2023-03-18T15:08:53.484Z,32.70
2023-03-18T15:11:21.823Z,33.20
2023-03-18T15:13:48.831Z,33.70
2023-03-18T15:16:18.582Z,34.20
2023-03-18T15:18:45.786Z,34.40
2023-03-18T15:21:17.735Z,34.60
2023-03-18T15:23:54.729Z,34.70
2023-03-18T15:26:24.707Z,34.70
2023-03-18T15:28:58.544Z,34.80
2023-03-18T15:31:31.094Z,35.20
2023-03-18T15:34:14.354Z,35.90
2023-03-18T15:36:42.364Z,36.10
2023-03-18T15:39:19.335Z,36.10
2023-03-18T15:41:46.283Z,36.30
2023-03-18T15:44:20.821Z,36.60
2023-03-18T15:46:47.666Z,36.90
2023-03-18T15:49:14.462Z,37.10
2023-03-18T15:51:47.800Z,37.20
2023-03-18T15:54:29.794Z,37.40
2023-03-18T15:56:58.264Z,37.50
2023-03-18T15:59:29.218Z,37.90
2023-03-18T16:01:56.960Z,38.10
2023-03-18T16:04:24.407Z,38.20
2023-03-18T16:06:54.876Z,38.90
2023-03-18T16:09:22.959Z,39.50
2023-03-18T16:11:52.129Z,40.60
2023-03-18T16:14:20.695Z,41.30
2023-03-18T16:16:47.947Z,42.50
2023-03-18T16:19:16.305Z,43.20
2023-03-18T16:21:43.583Z,43.50
2023-03-18T16:24:11.647Z,44.20
2023-03-18T16:26:38.487Z,44.80
2023-03-18T16:29:11.969Z,45.10
2023-03-18T16:31:38.807Z,45.60
2023-03-18T16:34:09.198Z,46.20
2023-03-18T16:36:36.288Z,46.20
2023-03-18T16:39:12.779Z,46.60
2023-03-18T16:41:39.640Z,47.00
2023-03-18T16:44:18.318Z,47.40
2023-03-18T16:46:53.819Z,47.80
2023-03-18T16:49:27.112Z,47.80
2023-03-18T16:51:54.616Z,48.10
2023-03-18T16:54:31.571Z,48.30
2023-03-18T16:57:02.172Z,48.70
2023-03-18T16:59:35.305Z,48.60
2023-03-18T17:02:04.042Z,49.50
2023-03-18T17:04:35.861Z,49.90
2023-03-18T17:07:04.613Z,50.50
2023-03-18T17:09:32.099Z,50.90
2023-03-18T17:12:05.811Z,51.20
2023-03-18T17:14:41.444Z,51.60
2023-03-18T17:17:30.582Z,51.80
2023-03-18T17:19:57.647Z,52.30
2023-03-18T17:22:30.564Z,53.00
2023-03-18T17:24:57.553Z,53.20
2023-03-18T17:27:31.867Z,53.10
2023-03-18T17:29:58.772Z,53.80
2023-03-18T17:32:26.089Z,53.90
2023-03-18T17:34:53.964Z,54.40
2023-03-18T17:37:21.511Z,54.90
2023-03-18T17:39:48.441Z,55.20
2023-03-18T17:42:18.082Z,55.50
2023-03-18T17:44:45.647Z,55.80
2023-03-18T17:47:14.579Z,56.20
2023-03-18T17:49:41.555Z,56.40
2023-03-18T17:52:19.681Z,56.60
2023-03-18T17:54:47.025Z,57.00
2023-03-18T17:57:18.300Z,57.20
2023-03-18T17:59:46.039Z,57.70
2023-03-18T18:02:17.800Z,57.80
2023-03-18T18:04:45.792Z,57.90
2023-03-18T18:07:21.828Z,57.90
2023-03-18T18:09:49.610Z,58.20
2023-03-18T18:12:25.681Z,57.90
2023-03-18T18:14:52.730Z,57.90
2023-03-18T18:17:20.577Z,57.80
2023-03-18T18:19:47.600Z,57.90
2023-03-18T18:22:21.180Z,57.90
2023-03-18T18:24:48.733Z,58.00
2023-03-18T18:27:16.017Z,58.00
2023-03-18T18:29:46.015Z,57.90
2023-03-18T18:32:13.276Z,58.00
2023-03-18T18:34:40.294Z,58.10
2023-03-18T18:37:07.881Z,58.00
2023-03-18T18:39:34.839Z,58.10
2023-03-18T18:42:01.797Z,58.10
2023-03-18T18:44:28.742Z,58.10
2023-03-18T18:46:56.149Z,58.20
2023-03-18T18:49:24.626Z,58.20
2023-03-18T18:51:54.770Z,58.20
2023-03-18T18:54:23.154Z,58.40
2023-03-18T18:56:50.357Z,58.70
2023-03-18T18:59:26.967Z,58.70
2023-03-18T19:01:55.389Z,58.90
2023-03-18T19:04:22.933Z,59.50
2023-03-18T19:06:51.686Z,59.60
2023-03-18T19:09:24.543Z,60.30
2023-03-18T19:11:55.294Z,60.60
2023-03-18T19:14:29.488Z,60.40
2023-03-18T19:17:01.936Z,60.70
2023-03-18T19:19:32.503Z,60.70
2023-03-18T19:22:00.415Z,60.80
2023-03-18T19:24:32.652Z,61.00
2023-03-18T19:27:02.895Z,61.40
2023-03-18T19:29:30.704Z,61.40
2023-03-18T19:31:57.758Z,61.60
2023-03-18T19:34:26.834Z,61.50
2023-03-18T19:36:56.673Z,61.80
2023-03-18T19:39:25.235Z,62.20
2023-03-18T19:41:52.379Z,63.10
2023-03-18T19:44:25.170Z,62.50
2023-03-18T19:46:54.995Z,62.80
2023-03-18T19:49:35.763Z,62.90
2023-03-18T19:52:16.514Z,63.10
2023-03-18T19:54:44.569Z,63.20
2023-03-18T19:57:28.769Z,63.50
2023-03-18T19:59:57.999Z,63.80
2023-03-18T20:02:34.889Z,64.00
2023-03-18T20:05:04.755Z,64.70
2023-03-18T20:07:32.868Z,64.70
2023-03-18T20:10:00.290Z,65.10
2023-03-18T20:12:42.118Z,65.20
2023-03-18T20:15:25.187Z,65.20
2023-03-18T20:17:53.075Z,65.00
2023-03-18T20:20:23.334Z,64.90
2023-03-18T20:23:12.548Z,64.70
2023-03-18T20:25:43.659Z,64.90
2023-03-18T20:28:23.092Z,64.60
2023-03-18T20:30:53.399Z,64.80
2023-03-18T20:33:22.171Z,64.60
2023-03-18T20:35:52.395Z,64.60
2023-03-18T20:38:35.286Z,64.50
2023-03-18T20:41:03.198Z,64.60
2023-03-18T20:43:30.808Z,64.40
2023-03-18T20:45:59.965Z,64.40
2023-03-18T20:48:27.885Z,64.40
2023-03-18T20:50:55.375Z,64.40
2023-03-18T20:53:28.610Z,64.40
2023-03-18T20:55:56.113Z,64.60
2023-03-18T20:58:25.874Z,64.60
2023-03-18T21:00:53.877Z,64.90
2023-03-18T21:03:27.146Z,65.10
2023-03-18T21:05:57.782Z,65.60
2023-03-18T21:08:26.630Z,65.60
2023-03-18T21:10:54.801Z,66.10
2023-03-18T21:13:30.791Z,66.10
2023-03-18T21:15:58.900Z,66.40
2023-03-18T21:18:26.635Z,66.30
2023-03-18T21:20:56.532Z,66.30
2023-03-18T21:23:24.869Z,66.20
2023-03-18T21:25:53.207Z,66.30
2023-03-18T21:28:21.679Z,66.30
2023-03-18T21:30:50.855Z,66.40
2023-03-18T21:33:21.206Z,66.60
2023-03-18T21:35:50.283Z,66.70
2023-03-18T21:38:18.677Z,66.70
2023-03-18T21:40:46.085Z,66.70
2023-03-18T21:43:40.133Z,66.70
2023-03-18T21:46:12.619Z,66.80
2023-03-18T21:48:39.921Z,66.70
2023-03-18T21:51:10.165Z,66.90
2023-03-18T21:53:37.456Z,67.00
2023-03-18T21:56:04.758Z,67.10
2023-03-18T21:58:31.701Z,67.00
2023-03-18T22:00:59.527Z,67.20
2023-03-18T22:03:29.014Z,67.30
2023-03-18T22:05:57.463Z,67.50
2023-03-18T22:08:25.487Z,67.40
2023-03-18T22:10:53.064Z,67.40
2023-03-18T22:13:25.256Z,67.40
2023-03-18T22:15:53.608Z,67.40
2023-03-18T22:18:21.577Z,67.30
2023-03-18T22:20:51.196Z,67.30
2023-03-18T22:23:23.387Z,67.30
2023-03-18T22:25:54.783Z,67.30
2023-03-18T22:28:22.878Z,67.30
2023-03-18T22:30:52.134Z,67.60
2023-03-18T22:33:26.545Z,67.90
2023-03-18T22:35:54.274Z,68.30
2023-03-18T22:38:25.837Z,68.20
2023-03-18T22:40:55.798Z,68.40
2023-03-18T22:43:34.750Z,69.30
2023-03-18T22:46:04.641Z,68.60
2023-03-18T22:48:32.251Z,68.20
2023-03-18T22:51:00.516Z,68.10
2023-03-18T22:53:31.862Z,68.00
2023-03-18T22:56:05.939Z,67.90
2023-03-18T22:58:32.870Z,67.90
2023-03-18T23:00:59.769Z,67.80
2023-03-18T23:03:33.685Z,67.90
2023-03-18T23:06:02.867Z,68.20
2023-03-18T23:08:30.586Z,68.80
2023-03-18T23:11:01.028Z,69.20
2023-03-18T23:13:38.013Z,69.80
2023-03-18T23:16:06.955Z,70.30
2023-03-18T23:18:34.977Z,70.30
2023-03-18T23:21:01.944Z,70.30
2023-03-18T23:23:30.393Z,70.20
2023-03-18T23:25:57.870Z,70.10
2023-03-18T23:28:24.780Z,70.10
2023-03-18T23:30:53.173Z,70.00
2023-03-18T23:33:20.572Z,69.90
2023-03-18T23:35:48.205Z,69.80
2023-03-18T23:38:15.519Z,70.60
2023-03-18T23:40:42.484Z,69.80
2023-03-18T23:43:09.707Z,69.80
2023-03-18T23:45:38.471Z,69.80
2023-03-18T23:48:06.201Z,69.90
2023-03-18T23:50:33.353Z,69.90
2023-03-18T23:53:00.496Z,69.90
2023-03-18T23:55:45.471Z,69.90
2023-03-18T23:58:12.432Z,70.10
